Terminal Aerodrome Forecast
Issued by NWS Los Angeles, CA

Current Version | Previous Version | Text Only | Print | Product List | Glossary On
Versions: 1 2 3 4 5 6 7 8 9 10 11 12 13 14 15 16 17 18 19 20 21 22 23 24
454
FTUS46 KLOX 220005 RRA
TAFSMX
TAF
KSMX 220005Z 2200/2224 31009KT P6SM SCT250
     FM220300 VRB03KT P6SM SCT250
     FM220900 VRB03KT 1/2SM FG VV002
     FM221500 VRB03KT 6SM HZ SCT005
     FM221600 32006KT P6SM FEW010
     FM222000 31012KT P6SM SCT250=

USA.gov is the U.S. government's official web portal to all federal, state and local government web resources and services.